createdAt,value
2019-01-05T00:03:16.159Z,34.10
2019-01-05T00:09:39.375Z,30.90
2019-01-05T00:16:01.116Z,30.03
2019-01-05T00:22:43.915Z,32.17
2019-01-05T00:29:13.262Z,28.53
2019-01-05T00:35:44.277Z,29.40
2019-01-05T00:42:06.632Z,27.80
2019-01-05T00:48:37.298Z,27.80
2019-01-05T00:55:13.688Z,32.60
2019-01-05T01:01:39.888Z,28.83
2019-01-05T01:08:01.782Z,31.23
2019-01-05T01:14:28.027Z,28.70
2019-01-05T01:20:57.612Z,35.53
2019-01-05T01:27:26.962Z,32.43
2019-01-05T01:33:49.200Z,36.17
2019-01-05T01:40:29.904Z,36.13
2019-01-05T01:46:53.740Z,32.97
2019-01-05T01:53:16.998Z,34.10
2019-01-05T01:59:53.292Z,35.73
2019-01-05T02:06:19.415Z,34.23
2019-01-05T02:12:47.346Z,36.27
2019-01-05T02:19:39.355Z,33.33
2019-01-05T02:26:57.720Z,30.87
2019-01-05T02:34:11.060Z,34.17
2019-01-05T02:41:08.958Z,34.97
2019-01-05T02:48:33.965Z,30.00
2019-01-05T02:55:38.773Z,32.20
2019-01-05T03:02:47.431Z,28.37
2019-01-05T03:09:59.277Z,28.27
2019-01-05T03:16:57.941Z,25.60
2019-01-05T03:23:49.937Z,27.77
2019-01-05T03:30:51.449Z,29.87
2019-01-05T03:37:41.791Z,25.70
2019-01-05T03:44:37.409Z,29.17
2019-01-05T03:51:50.966Z,24.93
2019-01-05T03:58:42.639Z,26.93
2019-01-05T04:05:25.394Z,29.30
2019-01-05T04:12:30.043Z,30.13
2019-01-05T04:19:21.385Z,35.37
2019-01-05T04:26:06.632Z,27.30
2019-01-05T04:33:27.069Z,28.10
2019-01-05T04:40:29.275Z,27.90
2019-01-05T04:47:39.728Z,29.57
2019-01-05T04:54:52.604Z,28.37
2019-01-05T05:01:48.098Z,28.33
2019-01-05T05:08:46.852Z,26.70
2019-01-05T05:16:04.646Z,19.90
2019-01-05T05:23:11.527Z,22.43
2019-01-05T05:30:41.716Z,18.40
2019-01-05T05:37:42.917Z,14.00
2019-01-05T05:44:59.356Z,10.60
2019-01-05T05:52:01.693Z,8.93
2019-01-05T05:58:58.264Z,9.40
2019-01-05T06:05:57.906Z,11.83
2019-01-05T06:13:07.892Z,8.87
2019-01-05T06:20:16.257Z,12.67
2019-01-05T06:27:17.766Z,9.67
2019-01-05T06:34:35.489Z,13.50
2019-01-05T06:41:48.577Z,13.30
2019-01-05T06:49:09.367Z,11.13
2019-01-05T06:56:14.057Z,12.30
2019-01-05T07:03:13.655Z,15.60
2019-01-05T07:10:25.429Z,10.73
2019-01-05T07:17:41.123Z,14.80
2019-01-05T07:25:13.722Z,14.97
2019-01-05T07:32:23.848Z,16.10
2019-01-05T07:39:46.014Z,13.37
2019-01-05T07:47:02.080Z,15.57
2019-01-05T07:54:17.183Z,15.13
2019-01-05T08:01:27.510Z,14.43
2019-01-05T08:08:58.708Z,15.70
2019-01-05T08:16:07.439Z,13.73
2019-01-05T08:23:24.359Z,42.33
2019-01-05T08:30:55.708Z,15.40
2019-01-05T08:38:14.362Z,13.37
2019-01-05T08:45:11.316Z,18.37
2019-01-05T08:52:30.720Z,12.58
2019-01-05T08:59:45.601Z,19.03
2019-01-05T09:06:46.264Z,16.83
2019-01-05T09:13:41.164Z,18.50
2019-01-05T09:20:31.176Z,21.10
2019-01-05T09:27:32.616Z,18.87
2019-01-05T09:34:38.318Z,21.87
2019-01-05T09:41:43.079Z,26.57
2019-01-05T09:48:58.787Z,23.70
2019-01-05T09:55:48.508Z,26.63
2019-01-05T10:03:01.845Z,26.23
2019-01-05T10:10:00.504Z,26.77
2019-01-05T10:17:15.230Z,23.83
2019-01-05T10:24:29.673Z,23.53
2019-01-05T10:31:33.731Z,21.57
2019-01-05T10:38:24.634Z,17.33
2019-01-05T10:45:42.649Z,19.27
2019-01-05T10:52:32.271Z,19.73
2019-01-05T10:59:49.236Z,20.50
2019-01-05T11:06:54.237Z,23.77
2019-01-05T11:14:15.027Z,18.67
2019-01-05T11:21:15.021Z,19.23
2019-01-05T11:28:28.141Z,19.60
2019-01-05T11:35:32.562Z,18.33
2019-01-05T11:42:37.335Z,20.40
2019-01-05T11:49:43.100Z,20.70
2019-01-05T11:56:51.888Z,16.23
2019-01-05T12:03:58.734Z,20.70
2019-01-05T12:11:18.179Z,14.93
2019-01-05T12:18:40.076Z,17.07
2019-01-05T12:25:50.250Z,17.47
2019-01-05T12:33:05.220Z,16.07
2019-01-05T12:40:10.961Z,19.67
2019-01-05T12:47:39.966Z,19.57
2019-01-05T12:54:43.489Z,18.23
2019-01-05T13:02:05.096Z,18.32
2019-01-05T13:09:12.375Z,16.45
2019-01-05T13:16:17.936Z,19.90
2019-01-05T13:23:15.902Z,18.98
2019-01-05T13:30:14.394Z,23.77
2019-01-05T13:37:23.944Z,18.87
2019-01-05T13:44:39.019Z,19.20
2019-01-05T13:51:27.518Z,16.48
2019-01-05T13:57:53.803Z,19.37
2019-01-05T14:04:23.065Z,15.40
2019-01-05T14:10:52.084Z,21.17
2019-01-05T14:17:15.848Z,19.47
2019-01-05T14:23:39.557Z,17.30
2019-01-05T14:30:02.799Z,15.15
2019-01-05T14:36:26.045Z,15.60
2019-01-05T14:43:13.006Z,16.17
2019-01-05T14:49:35.455Z,18.67
2019-01-05T14:55:52.146Z,18.62
2019-01-05T15:02:14.178Z,21.47
2019-01-05T15:08:36.191Z,18.62
2019-01-05T15:15:03.132Z,16.87
2019-01-05T15:21:36.206Z,19.03
2019-01-05T15:28:14.699Z,14.83
2019-01-05T15:34:42.192Z,17.33
2019-01-05T15:41:08.368Z,18.03
2019-01-05T15:47:32.677Z,14.00
2019-01-05T15:53:53.064Z,16.43
2019-01-05T16:00:11.520Z,15.98
2019-01-05T16:06:33.549Z,14.20
2019-01-05T16:12:55.698Z,15.70
2019-01-05T16:19:27.806Z,14.23
2019-01-05T16:26:03.220Z,18.00
2019-01-05T16:32:26.661Z,15.40
2019-01-05T16:39:05.357Z,17.37
2019-01-05T16:45:31.676Z,19.00
2019-01-05T16:51:59.634Z,18.60
2019-01-05T16:58:21.688Z,20.13
2019-01-05T17:04:50.766Z,19.30
2019-01-05T17:11:22.808Z,22.83
2019-01-05T17:17:53.889Z,22.07
2019-01-05T17:24:15.575Z,20.47
2019-01-05T17:30:41.840Z,24.80
2019-01-05T17:37:10.961Z,20.83
2019-01-05T17:43:30.483Z,22.07
2019-01-05T17:49:52.255Z,22.67
2019-01-05T17:56:14.165Z,21.40
2019-01-05T18:02:43.336Z,19.30
2019-01-05T18:09:04.991Z,21.63
2019-01-05T18:15:28.387Z,19.70
2019-01-05T18:22:03.606Z,22.23
2019-01-05T18:28:41.835Z,20.33
2019-01-05T18:35:19.775Z,20.03
2019-01-05T18:41:41.958Z,16.97
2019-01-05T18:48:11.436Z,21.83
2019-01-05T18:54:33.253Z,19.70
2019-01-05T19:00:55.115Z,19.90
2019-01-05T19:07:33.674Z,20.70
2019-01-05T19:13:57.083Z,20.77
2019-01-05T19:20:18.912Z,20.47
2019-01-05T19:26:40.539Z,24.83
2019-01-05T19:33:11.713Z,24.20
2019-01-05T19:39:33.900Z,21.53
2019-01-05T19:46:05.981Z,22.93
2019-01-05T19:52:31.952Z,21.70
2019-01-05T19:58:53.804Z,24.97
2019-01-05T20:05:13.822Z,21.03
2019-01-05T20:11:35.624Z,21.23
2019-01-05T20:17:57.538Z,24.80
2019-01-05T20:24:21.397Z,26.57
2019-01-05T20:30:42.404Z,28.63
2019-01-05T20:37:13.686Z,31.20
2019-01-05T20:43:36.973Z,29.27
2019-01-05T20:49:58.561Z,30.57
2019-01-05T20:56:37.734Z,30.33
2019-01-05T21:03:08.235Z,30.03
2019-01-05T21:09:31.668Z,25.43
2019-01-05T21:15:53.354Z,26.00
2019-01-05T21:22:20.290Z,27.10
2019-01-05T21:28:42.217Z,27.33
2019-01-05T21:35:08.213Z,25.83
2019-01-05T21:41:29.868Z,28.90
2019-01-05T21:47:51.761Z,27.47
2019-01-05T21:54:22.289Z,29.80
2019-01-05T22:00:44.263Z,28.10
2019-01-05T22:07:13.531Z,30.20
2019-01-05T22:13:35.989Z,29.97
2019-01-05T22:20:08.237Z,28.53
2019-01-05T22:26:40.849Z,29.83
2019-01-05T22:33:02.640Z,24.77
2019-01-05T22:39:35.410Z,25.63
2019-01-05T22:45:58.630Z,24.13
2019-01-05T22:52:20.318Z,24.77
2019-01-05T22:58:46.418Z,26.50
2019-01-05T23:05:08.253Z,26.07
2019-01-05T23:11:30.138Z,25.63
2019-01-05T23:17:51.696Z,23.90
2019-01-05T23:24:13.396Z,26.53
2019-01-05T23:30:45.512Z,24.47
2019-01-05T23:37:21.819Z,20.93
2019-01-05T23:43:51.128Z,22.40
2019-01-05T23:50:12.743Z,20.93
2019-01-05T23:56:34.540Z,20.53
